sensor_id;sensor_type;location;lat;lon;timestamp;pressure;altitude;pressure_sealevel;temperature;humidity
45621;BME280;31345;51.522;10.702;2023-02-20T00:00:57;99826.06;;;5.54;100.00
45621;BME280;31345;51.522;10.702;2023-02-20T00:03:29;99829.63;;;5.52;100.00
45621;BME280;31345;51.522;10.702;2023-02-20T00:06:02;99820.78;;;5.57;100.00
45621;BME280;31345;51.522;10.702;2023-02-20T00:08:29;99812.59;;;5.70;100.00
45621;BME280;31345;51.522;10.702;2023-02-20T00:10:58;99808.19;;;5.72;100.00
45621;BME280;31345;51.522;10.702;2023-02-20T00:13:31;99801.47;;;5.66;100.00
45621;BME280;31345;51.522;10.702;2023-02-20T00:15:58;99801.47;;;5.66;100.00
45621;BME280;31345;51.522;10.702;2023-02-20T00:18:31;99798.84;;;5.66;100.00
45621;BME280;31345;51.522;10.702;2023-02-20T00:21:04;99787.56;;;5.69;100.00
45621;BME280;31345;51.522;10.702;2023-02-20T00:23:32;99785.59;;;5.75;100.00
45621;BME280;31345;51.522;10.702;2023-02-20T00:26:09;99781.13;;;5.79;100.00
45621;BME280;31345;51.522;10.702;2023-02-20T00:28:37;99771.72;;;5.76;100.00
45621;BME280;31345;51.522;10.702;2023-02-20T00:31:12;99780.44;;;5.74;100.00
45621;BME280;31345;51.522;10.702;2023-02-20T00:33:45;99773.63;;;5.71;100.00
45621;BME280;31345;51.522;10.702;2023-02-20T00:36:20;99782.09;;;5.76;100.00
45621;BME280;31345;51.522;10.702;2023-02-20T00:38:48;99779.41;;;5.80;100.00
45621;BME280;31345;51.522;10.702;2023-02-20T00:41:16;99782.09;;;5.76;100.00
45621;BME280;31345;51.522;10.702;2023-02-20T00:43:49;99779.53;;;5.75;100.00
45621;BME280;31345;51.522;10.702;2023-02-20T00:46:22;99774.41;;;5.73;100.00
45621;BME280;31345;51.522;10.702;2023-02-20T00:48:49;99775.13;;;5.79;100.00
45621;BME280;31345;51.522;10.702;2023-02-20T00:51:41;99776.09;;;5.74;100.00
45621;BME280;31345;51.522;10.702;2023-02-20T00:54:14;99774.41;;;5.73;100.00
45621;BME280;31345;51.522;10.702;2023-02-20T00:56:48;99771.91;;;5.70;100.00
45621;BME280;31345;51.522;10.702;2023-02-20T00:59:20;99769.25;;;5.72;100.00
45621;BME280;31345;51.522;10.702;2023-02-20T01:01:48;99764.06;;;5.72;100.00
45621;BME280;31345;51.522;10.702;2023-02-20T01:04:20;99758.84;;;5.73;100.00
45621;BME280;31345;51.522;10.702;2023-02-20T01:06:53;99742.38;;;5.74;100.00
45621;BME280;31345;51.522;10.702;2023-02-20T01:09:25;99722.50;;;5.73;100.00
45621;BME280;31345;51.522;10.702;2023-02-20T01:11:54;99734.31;;;5.82;100.00
45621;BME280;31345;51.522;10.702;2023-02-20T01:14:22;99767.09;;;5.85;100.00
45621;BME280;31345;51.522;10.702;2023-02-20T01:16:55;99764.41;;;5.88;100.00
45621;BME280;31345;51.522;10.702;2023-02-20T01:19:28;99769.75;;;5.83;100.00
45621;BME280;31345;51.522;10.702;2023-02-20T01:22:00;99765.63;;;5.78;100.00
45621;BME280;31345;51.522;10.702;2023-02-20T01:24:36;99755.19;;;5.79;100.00
45621;BME280;31345;51.522;10.702;2023-02-20T01:27:05;99755.28;;;5.76;100.00
45621;BME280;31345;51.522;10.702;2023-02-20T01:29:33;99762.25;;;5.75;100.00
45621;BME280;31345;51.522;10.702;2023-02-20T01:32:05;99761.34;;;5.76;100.00
45621;BME280;31345;51.522;10.702;2023-02-20T01:34:38;99762.91;;;5.81;100.00
45621;BME280;31345;51.522;10.702;2023-02-20T01:37:06;99759.22;;;5.88;100.00
45621;BME280;31345;51.522;10.702;2023-02-20T01:39:40;99759.38;;;5.83;100.00
45621;BME280;31345;51.522;10.702;2023-02-20T01:42:18;99754.97;;;5.85;100.00
45621;BME280;31345;51.522;10.702;2023-02-20T01:44:52;99757.63;;;5.84;100.00
45621;BME280;31345;51.522;10.702;2023-02-20T01:47:25;99743.97;;;5.79;100.00
45621;BME280;31345;51.522;10.702;2023-02-20T01:50:00;99737.88;;;5.80;100.00
45621;BME280;31345;51.522;10.702;2023-02-20T01:52:34;99728.22;;;5.83;100.00
45621;BME280;31345;51.522;10.702;2023-02-20T01:55:11;99725.69;;;5.82;100.00
45621;BME280;31345;51.522;10.702;2023-02-20T01:57:50;99730.75;;;5.85;100.00
45621;BME280;31345;51.522;10.702;2023-02-20T02:00:20;99736.25;;;5.77;100.00
45621;BME280;31345;51.522;10.702;2023-02-20T02:02:54;99736.25;;;5.77;100.00
45621;BME280;31345;51.522;10.702;2023-02-20T02:05:23;99740.56;;;5.76;100.00
45621;BME280;31345;51.522;10.702;2023-02-20T02:07:54;99731.06;;;5.77;100.00
45621;BME280;31345;51.522;10.702;2023-02-20T02:10:29;99726.06;;;5.71;100.00
45621;BME280;31345;51.522;10.702;2023-02-20T02:13:05;99732.22;;;5.68;100.00
45621;BME280;31345;51.522;10.702;2023-02-20T02:15:38;99726.34;;;5.63;100.00
45621;BME280;31345;51.522;10.702;2023-02-20T02:18:22;99723.09;;;5.56;100.00
45621;BME280;31345;51.522;10.702;2023-02-20T02:21:30;99716.84;;;5.62;100.00
45621;BME280;31345;51.522;10.702;2023-02-20T02:27:47;99714.53;;;5.54;100.00
45621;BME280;31345;51.522;10.702;2023-02-20T02:30:52;99716.31;;;5.52;100.00
45621;BME280;31345;51.522;10.702;2023-02-20T02:36:52;99704.38;;;5.48;100.00
45621;BME280;31345;51.522;10.702;2023-02-20T02:39:35;99705.81;;;5.57;100.00
45621;BME280;31345;51.522;10.702;2023-02-20T02:42:17;99699.69;;;5.58;100.00
45621;BME280;31345;51.522;10.702;2023-02-20T02:45:01;99698.25;;;5.50;100.00
45621;BME280;31345;51.522;10.702;2023-02-20T02:47:34;99695.91;;;5.43;100.00
45621;BME280;31345;51.522;10.702;2023-02-20T02:50:12;99692.41;;;5.44;100.00
45621;BME280;31345;51.522;10.702;2023-02-20T02:52:49;99696.78;;;5.43;100.00
45621;BME280;31345;51.522;10.702;2023-02-20T02:55:21;99677.84;;;5.40;100.00
45621;BME280;31345;51.522;10.702;2023-02-20T02:57:49;99673.72;;;5.34;100.00
45621;BME280;31345;51.522;10.702;2023-02-20T03:00:24;99682.41;;;5.33;100.00
45621;BME280;31345;51.522;10.702;2023-02-20T03:03:01;99672.19;;;5.28;100.00
45621;BME280;31345;51.522;10.702;2023-02-20T03:05:43;99672.19;;;5.28;100.00
45621;BME280;31345;51.522;10.702;2023-02-20T03:08:21;99672.91;;;5.33;100.00
45621;BME280;31345;51.522;10.702;2023-02-20T03:11:04;99679.19;;;5.26;100.00
45621;BME280;31345;51.522;10.702;2023-02-20T03:13:36;99671.63;;;5.20;100.00
45621;BME280;31345;51.522;10.702;2023-02-20T03:16:31;99659.09;;;5.33;100.00
45621;BME280;31345;51.522;10.702;2023-02-20T03:19:11;99663.53;;;5.29;100.00
45621;BME280;31345;51.522;10.702;2023-02-20T03:21:46;99665.38;;;5.26;100.00
45621;BME280;31345;51.522;10.702;2023-02-20T03:24:23;99670.59;;;5.24;100.00
45621;BME280;31345;51.522;10.702;2023-02-20T03:26:58;99664.31;;;5.31;100.00
45621;BME280;31345;51.522;10.702;2023-02-20T03:29:31;99661.78;;;5.30;100.00
45621;BME280;31345;51.522;10.702;2023-02-20T03:32:08;99663.31;;;5.35;100.00
45621;BME280;31345;51.522;10.702;2023-02-20T03:34:56;99655.63;;;5.32;100.00
45621;BME280;31345;51.522;10.702;2023-02-20T03:37:47;99653.78;;;5.36;100.00
45621;BME280;31345;51.522;10.702;2023-02-20T03:40:35;99647.22;;;5.26;100.00
45621;BME280;31345;51.522;10.702;2023-02-20T03:43:30;99654.13;;;5.27;100.00
45621;BME280;31345;51.522;10.702;2023-02-20T03:46:08;99659.13;;;5.31;100.00
45621;BME280;31345;51.522;10.702;2023-02-20T03:48:44;99670.38;;;5.32;100.00
45621;BME280;31345;51.522;10.702;2023-02-20T03:51:18;99670.50;;;5.27;100.00
45621;BME280;31345;51.522;10.702;2023-02-20T03:53:58;99668.06;;;5.22;100.00
45621;BME280;31345;51.522;10.702;2023-02-20T03:56:36;99667.25;;;5.22;100.00
45621;BME280;31345;51.522;10.702;2023-02-20T03:59:10;99672.78;;;5.11;100.00
45621;BME280;31345;51.522;10.702;2023-02-20T04:01:46;99677.16;;;5.09;100.00
45621;BME280;31345;51.522;10.702;2023-02-20T04:04:20;99692.53;;;5.15;100.00
45621;BME280;31345;51.522;10.702;2023-02-20T04:06:50;99692.81;;;5.06;100.00
45621;BME280;31345;51.522;10.702;2023-02-20T04:09:29;99697.84;;;5.10;100.00
45621;BME280;31345;51.522;10.702;2023-02-20T04:12:09;99707.53;;;5.05;100.00
45621;BME280;31345;51.522;10.702;2023-02-20T04:14:43;99704.72;;;5.11;100.00
45621;BME280;31345;51.522;10.702;2023-02-20T04:17:16;99705.13;;;4.99;100.00
45621;BME280;31345;51.522;10.702;2023-02-20T04:19:47;99702.94;;;4.87;100.00
45621;BME280;31345;51.522;10.702;2023-02-20T04:22:23;99694.03;;;4.95;100.00
45621;BME280;31345;51.522;10.702;2023-02-20T04:25:00;99687.22;;;4.93;100.00
45621;BME280;31345;51.522;10.702;2023-02-20T04:27:31;99665.53;;;4.95;100.00
45621;BME280;31345;51.522;10.702;2023-02-20T04:30:06;99653.00;;;4.83;100.00
45621;BME280;31345;51.522;10.702;2023-02-20T04:32:40;99653.69;;;4.88;100.00
45621;BME280;31345;51.522;10.702;2023-02-20T04:35:16;99659.63;;;4.90;100.00
45621;BME280;31345;51.522;10.702;2023-02-20T04:37:45;99666.22;;;4.73;100.00
45621;BME280;31345;51.522;10.702;2023-02-20T04:40:16;99667.72;;;4.81;100.00
45621;BME280;31345;51.522;10.702;2023-02-20T04:42:45;99687.94;;;4.69;100.00
45621;BME280;31345;51.522;10.702;2023-02-20T04:45:13;99682.03;;;4.66;100.00
45621;BME280;31345;51.522;10.702;2023-02-20T04:47:41;99677.28;;;4.52;100.00
45621;BME280;31345;51.522;10.702;2023-02-20T04:50:19;99669.75;;;4.44;100.00
45621;BME280;31345;51.522;10.702;2023-02-20T04:52:48;99669.28;;;4.31;100.00
45621;BME280;31345;51.522;10.702;2023-02-20T04:55:16;99671.47;;;4.15;100.00
45621;BME280;31345;51.522;10.702;2023-02-20T04:57:50;99663.56;;;4.21;100.00
45621;BME280;31345;51.522;10.702;2023-02-20T05:00:25;99666.53;;;4.36;100.00
45621;BME280;31345;51.522;10.702;2023-02-20T05:02:58;99658.16;;;4.27;100.00
45621;BME280;31345;51.522;10.702;2023-02-20T05:05:31;99665.84;;;4.30;100.00
45621;BME280;31345;51.522;10.702;2023-02-20T05:08:00;99657.69;;;4.14;100.00
45621;BME280;31345;51.522;10.702;2023-02-20T05:10:30;99652.09;;;4.00;100.00
45621;BME280;31345;51.522;10.702;2023-02-20T05:13:00;99640.50;;;4.12;100.00
45621;BME280;31345;51.522;10.702;2023-02-20T05:15:32;99638.97;;;4.06;100.00
45621;BME280;31345;51.522;10.702;2023-02-20T05:18:00;99642.56;;;4.00;100.00
45621;BME280;31345;51.522;10.702;2023-02-20T05:20:32;99652.28;;;4.22;100.00
45621;BME280;31345;51.522;10.702;2023-02-20T05:23:22;99632.50;;;4.21;100.00
45621;BME280;31345;51.522;10.702;2023-02-20T05:25:55;99609.16;;;4.23;100.00
45621;BME280;31345;51.522;10.702;2023-02-20T05:28:23;99611.22;;;4.11;100.00
45621;BME280;31345;51.522;10.702;2023-02-20T05:30:51;99600.88;;;4.11;100.00
45621;BME280;31345;51.522;10.702;2023-02-20T05:33:18;99597.97;;;3.92;100.00
45621;BME280;31345;51.522;10.702;2023-02-20T05:35:51;99600.22;;;4.04;100.00
45621;BME280;31345;51.522;10.702;2023-02-20T05:38:19;99602.38;;;3.90;100.00
45621;BME280;31345;51.522;10.702;2023-02-20T05:40:51;99600.84;;;3.82;100.00
45621;BME280;31345;51.522;10.702;2023-02-20T05:43:25;99616.50;;;3.78;100.00
45621;BME280;31345;51.522;10.702;2023-02-20T05:45:57;99610.16;;;3.88;100.00
45621;BME280;31345;51.522;10.702;2023-02-20T05:48:25;99597.22;;;3.88;100.00
45621;BME280;31345;51.522;10.702;2023-02-20T05:50:53;99597.28;;;3.87;100.00
45621;BME280;31345;51.522;10.702;2023-02-20T05:53:26;99584.88;;;3.98;100.00
45621;BME280;31345;51.522;10.702;2023-02-20T05:55:59;99582.16;;;4.03;100.00
45621;BME280;31345;51.522;10.702;2023-02-20T05:58:33;99570.28;;;3.95;100.00
45621;BME280;31345;51.522;10.702;2023-02-20T06:01:01;99565.50;;;3.83;100.00
45621;BME280;31345;51.522;10.702;2023-02-20T06:03:28;99564.31;;;3.65;100.00
45621;BME280;31345;51.522;10.702;2023-02-20T06:06:01;99567.75;;;3.64;100.00
45621;BME280;31345;51.522;10.702;2023-02-20T06:08:28;99578.06;;;3.65;100.00
45621;BME280;31345;51.522;10.702;2023-02-20T06:11:01;99580.81;;;3.61;100.00
45621;BME280;31345;51.522;10.702;2023-02-20T06:13:35;99590.91;;;3.68;100.00
45621;BME280;31345;51.522;10.702;2023-02-20T06:16:08;99576.41;;;3.63;100.00
45621;BME280;31345;51.522;10.702;2023-02-20T06:18:41;99578.06;;;3.65;100.00
45621;BME280;31345;51.522;10.702;2023-02-20T06:21:09;99564.78;;;3.48;100.00
45621;BME280;31345;51.522;10.702;2023-02-20T06:23:38;99561.94;;;3.57;100.00
45621;BME280;31345;51.522;10.702;2023-02-20T06:26:11;99572.59;;;3.46;100.00
45621;BME280;31345;51.522;10.702;2023-02-20T06:28:41;99562.22;;;3.48;100.00
45621;BME280;31345;51.522;10.702;2023-02-20T06:31:20;99554.00;;;3.63;100.00
45621;BME280;31345;51.522;10.702;2023-02-20T06:33:47;99550.03;;;3.81;100.00
45621;BME280;31345;51.522;10.702;2023-02-20T06:36:21;99545.22;;;3.69;100.00
45621;BME280;31345;51.522;10.702;2023-02-20T06:38:54;99546.34;;;3.60;100.00
45621;BME280;31345;51.522;10.702;2023-02-20T06:41:22;99546.63;;;3.51;100.00
45621;BME280;31345;51.522;10.702;2023-02-20T06:43:56;99549.09;;;3.54;100.00
45621;BME280;31345;51.522;10.702;2023-02-20T06:46:24;99545.63;;;3.55;100.00
45621;BME280;31345;51.522;10.702;2023-02-20T06:48:57;99550.59;;;3.61;100.00
45621;BME280;31345;51.522;10.702;2023-02-20T06:51:26;99542.72;;;3.66;100.00
45621;BME280;31345;51.522;10.702;2023-02-20T06:54:01;99543.75;;;3.60;100.00
45621;BME280;31345;51.522;10.702;2023-02-20T06:56:34;99541.91;;;3.64;100.00
45621;BME280;31345;51.522;10.702;2023-02-20T06:59:05;99536.78;;;3.62;100.00
45621;BME280;31345;51.522;10.702;2023-02-20T07:01:40;99546.94;;;3.68;100.00
45621;BME280;31345;51.522;10.702;2023-02-20T07:04:19;99538.94;;;3.76;100.00
45621;BME280;31345;51.522;10.702;2023-02-20T07:06:48;99539.72;;;3.80;100.00
45621;BME280;31345;51.522;10.702;2023-02-20T07:09:21;99531.31;;;3.73;100.00
45621;BME280;31345;51.522;10.702;2023-02-20T07:11:51;99543.03;;;3.84;100.00
45621;BME280;31345;51.522;10.702;2023-02-20T07:14:20;99537.63;;;3.63;100.00
45621;BME280;31345;51.522;10.702;2023-02-20T07:16:53;99536.53;;;3.72;100.00
45621;BME280;31345;51.522;10.702;2023-02-20T07:19:20;99541.28;;;3.86;100.00
45621;BME280;31345;51.522;10.702;2023-02-20T07:21:52;99520.47;;;3.89;100.00
45621;BME280;31345;51.522;10.702;2023-02-20T07:24:20;99515.31;;;3.89;100.00
45621;BME280;31345;51.522;10.702;2023-02-20T07:26:53;99519.59;;;3.90;100.00
45621;BME280;31345;51.522;10.702;2023-02-20T07:29:22;99511.22;;;3.81;100.00
45621;BME280;31345;51.522;10.702;2023-02-20T07:31:54;99501.38;;;3.93;100.00
45621;BME280;31345;51.522;10.702;2023-02-20T07:34:26;99508.88;;;4.01;100.00
45621;BME280;31345;51.522;10.702;2023-02-20T07:36:54;99510.97;;;4.16;100.00
45621;BME280;31345;51.522;10.702;2023-02-20T07:39:27;99505.44;;;4.27;100.00
45621;BME280;31345;51.522;10.702;2023-02-20T07:42:00;99514.13;;;4.26;100.00
45621;BME280;31345;51.522;10.702;2023-02-20T07:45:09;99522.56;;;4.31;100.00
45621;BME280;31345;51.522;10.702;2023-02-20T07:47:41;99510.56;;;4.29;100.00
45621;BME280;31345;51.522;10.702;2023-02-20T07:50:09;99507.75;;;4.37;100.00
45621;BME280;31345;51.522;10.702;2023-02-20T07:52:37;99506.28;;;4.55;100.00
45621;BME280;31345;51.522;10.702;2023-02-20T07:55:12;99495.75;;;4.59;100.00
45621;BME280;31345;51.522;10.702;2023-02-20T07:57:39;99497.28;;;4.65;100.00
45621;BME280;31345;51.522;10.702;2023-02-20T08:00:15;99503.03;;;4.73;100.00
45621;BME280;31345;51.522;10.702;2023-02-20T08:02:48;99492.63;;;4.75;100.00
45621;BME280;31345;51.522;10.702;2023-02-20T08:05:20;99492.38;;;4.83;100.00
45621;BME280;31345;51.522;10.702;2023-02-20T08:07:53;99491.34;;;4.87;100.00
45621;BME280;31345;51.522;10.702;2023-02-20T08:10:27;99506.59;;;4.95;100.00
45621;BME280;31345;51.522;10.702;2023-02-20T08:12:55;99496.53;;;5.11;100.00
45621;BME280;31345;51.522;10.702;2023-02-20T08:15:29;99486.13;;;5.13;100.00
45621;BME280;31345;51.522;10.702;2023-02-20T08:17:57;99486.13;;;5.13;100.00
45621;BME280;31345;51.522;10.702;2023-02-20T08:20:29;99491.06;;;5.19;100.00
45621;BME280;31345;51.522;10.702;2023-02-20T08:22:57;99482.38;;;5.20;100.00
45621;BME280;31345;51.522;10.702;2023-02-20T08:25:25;99473.59;;;5.24;100.00
45621;BME280;31345;51.522;10.702;2023-02-20T08:27:53;99469.97;;;5.28;100.00
45621;BME280;31345;51.522;10.702;2023-02-20T08:30:23;99466.94;;;5.41;100.00
45621;BME280;31345;51.522;10.702;2023-02-20T08:32:53;99461.31;;;5.52;100.00
45621;BME280;31345;51.522;10.702;2023-02-20T08:35:26;99465.22;;;5.62;100.00
45621;BME280;31345;51.522;10.702;2023-02-20T08:37:59;99460.72;;;5.67;100.00
45621;BME280;31345;51.522;10.702;2023-02-20T08:40:26;99463.66;;;5.80;100.00
45621;BME280;31345;51.522;10.702;2023-02-20T08:42:59;99458.28;;;5.85;100.00
45621;BME280;31345;51.522;10.702;2023-02-20T08:45:26;99457.31;;;5.87;100.00
45621;BME280;31345;51.522;10.702;2023-02-20T08:47:57;99453.63;;;5.93;100.00
45621;BME280;31345;51.522;10.702;2023-02-20T08:50:31;99450.97;;;5.95;100.00
45621;BME280;31345;51.522;10.702;2023-02-20T08:53:04;99438.91;;;5.94;100.00
45621;BME280;31345;51.522;10.702;2023-02-20T08:55:31;99439.31;;;6.05;100.00
45621;BME280;31345;51.522;10.702;2023-02-20T08:57:59;99428.88;;;6.07;100.00
45621;BME280;31345;51.522;10.702;2023-02-20T09:00:27;99429.38;;;6.36;100.00
45621;BME280;31345;51.522;10.702;2023-02-20T09:03:01;99421.97;;;6.47;100.00
45621;BME280;31345;51.522;10.702;2023-02-20T09:05:37;99412.31;;;6.70;100.00
45621;BME280;31345;51.522;10.702;2023-02-20T09:08:05;99414.63;;;6.76;100.00
45621;BME280;31345;51.522;10.702;2023-02-20T09:10:37;99417.91;;;7.01;100.00
45621;BME280;31345;51.522;10.702;2023-02-20T09:13:10;99413.03;;;6.93;100.00
45621;BME280;31345;51.522;10.702;2023-02-20T09:15:42;99403.59;;;7.10;100.00
45621;BME280;31345;51.522;10.702;2023-02-20T09:18:16;99410.22;;;7.17;100.00
45621;BME280;31345;51.522;10.702;2023-02-20T09:20:44;99403.34;;;7.16;100.00
45621;BME280;31345;51.522;10.702;2023-02-20T09:23:12;99395.22;;;7.22;100.00
45621;BME280;31345;51.522;10.702;2023-02-20T09:25:45;99389.88;;;7.25;100.00
45621;BME280;31345;51.522;10.702;2023-02-20T09:28:14;99393.03;;;7.32;100.00
45621;BME280;31345;51.522;10.702;2023-02-20T09:30:41;99379.94;;;7.53;100.00
45621;BME280;31345;51.522;10.702;2023-02-20T09:33:09;99366.06;;;7.52;100.00
45621;BME280;31345;51.522;10.702;2023-02-20T09:35:43;99366.34;;;7.65;99.57
45621;BME280;31345;51.522;10.702;2023-02-20T09:38:11;99361.97;;;7.66;100.00
45621;BME280;31345;51.522;10.702;2023-02-20T09:40:45;99357.09;;;7.60;100.00
45621;BME280;31345;51.522;10.702;2023-02-20T09:43:29;99361.50;;;7.93;96.14
45621;BME280;31345;51.522;10.702;2023-02-20T09:46:03;99358.25;;;7.89;99.26
45621;BME280;31345;51.522;10.702;2023-02-20T09:48:47;99351.09;;;7.93;98.21
45621;BME280;31345;51.522;10.702;2023-02-20T09:51:28;99352.44;;;8.18;97.47
45621;BME280;31345;51.522;10.702;2023-02-20T09:54:04;99347.38;;;8.15;95.36
45621;BME280;31345;51.522;10.702;2023-02-20T09:56:41;99350.63;;;8.20;94.32
45621;BME280;31345;51.522;10.702;2023-02-20T09:59:19;99350.16;;;8.12;95.39
45621;BME280;31345;51.522;10.702;2023-02-20T10:01:58;99344.25;;;8.26;93.97
45621;BME280;31345;51.522;10.702;2023-02-20T10:04:36;99350.56;;;8.38;94.76
45621;BME280;31345;51.522;10.702;2023-02-20T10:07:23;99340.34;;;8.51;93.34
45621;BME280;31345;51.522;10.702;2023-02-20T10:09:57;99336.34;;;8.61;95.64
45621;BME280;31345;51.522;10.702;2023-02-20T10:12:28;99338.81;;;8.63;95.37
45621;BME280;31345;51.522;10.702;2023-02-20T10:15:14;99325.16;;;8.75;92.04
45621;BME280;31345;51.522;10.702;2023-02-20T10:17:58;99320.44;;;8.82;92.64
45621;BME280;31345;51.522;10.702;2023-02-20T10:20:37;99311.59;;;8.84;93.32
45621;BME280;31345;51.522;10.702;2023-02-20T10:23:21;99321.09;;;8.85;91.06
45621;BME280;31345;51.522;10.702;2023-02-20T10:25:59;99308.81;;;9.04;87.84
45621;BME280;31345;51.522;10.702;2023-02-20T10:28:34;99311.34;;;8.73;92.32
45621;BME280;31345;51.522;10.702;2023-02-20T10:31:23;99314.88;;;9.04;90.14
45621;BME280;31345;51.522;10.702;2023-02-20T10:34:00;99311.81;;;9.12;88.77
45621;BME280;31345;51.522;10.702;2023-02-20T10:36:35;99303.75;;;9.17;88.20
45621;BME280;31345;51.522;10.702;2023-02-20T10:39:11;99301.66;;;9.07;85.12
45621;BME280;31345;51.522;10.702;2023-02-20T10:41:47;99305.94;;;9.08;88.09
45621;BME280;31345;51.522;10.702;2023-02-20T10:44:28;99313.38;;;9.00;87.84
45621;BME280;31345;51.522;10.702;2023-02-20T10:46:59;99314.78;;;9.06;86.25
45621;BME280;31345;51.522;10.702;2023-02-20T10:49:37;99314.91;;;9.19;84.58
45621;BME280;31345;51.522;10.702;2023-02-20T10:52:17;99315.94;;;9.16;84.71
45621;BME280;31345;51.522;10.702;2023-02-20T10:54:51;99317.13;;;9.10;88.11
45621;BME280;31345;51.522;10.702;2023-02-20T10:57:30;99310.69;;;9.32;86.58
45621;BME280;31345;51.522;10.702;2023-02-20T11:00:09;99308.00;;;9.34;85.84
45621;BME280;31345;51.522;10.702;2023-02-20T11:02:39;99310.09;;;9.43;87.90
45621;BME280;31345;51.522;10.702;2023-02-20T11:05:11;99303.31;;;9.55;87.84
45621;BME280;31345;51.522;10.702;2023-02-20T11:07:44;99298.66;;;9.60;87.31
45621;BME280;31345;51.522;10.702;2023-02-20T11:10:13;99288.94;;;9.48;89.11
45621;BME280;31345;51.522;10.702;2023-02-20T11:12:43;99293.75;;;9.85;84.69
45621;BME280;31345;51.522;10.702;2023-02-20T11:15:15;99281.34;;;9.74;86.94
45621;BME280;31345;51.522;10.702;2023-02-20T11:17:51;99275.16;;;10.06;86.17
45621;BME280;31345;51.522;10.702;2023-02-20T11:20:41;99254.13;;;10.36;84.67
45621;BME280;31345;51.522;10.702;2023-02-20T11:23:35;99253.63;;;10.44;85.43
45621;BME280;31345;51.522;10.702;2023-02-20T11:26:23;99255.97;;;10.49;84.32
45621;BME280;31345;51.522;10.702;2023-02-20T11:28:59;99244.19;;;10.56;86.08
45621;BME280;31345;51.522;10.702;2023-02-20T11:31:28;99237.97;;;10.44;85.37
45621;BME280;31345;51.522;10.702;2023-02-20T11:34:03;99244.22;;;10.27;87.48
45621;BME280;31345;51.522;10.702;2023-02-20T11:36:38;99242.56;;;10.26;85.38
45621;BME280;31345;51.522;10.702;2023-02-20T11:39:26;99238.47;;;10.22;87.68
45621;BME280;31345;51.522;10.702;2023-02-20T11:42:10;99229.66;;;10.37;87.55
45621;BME280;31345;51.522;10.702;2023-02-20T11:44:38;99225.84;;;10.28;87.57
45621;BME280;31345;51.522;10.702;2023-02-20T11:47:17;99224.59;;;10.49;87.71
45621;BME280;31345;51.522;10.702;2023-02-20T11:50:15;99228.56;;;10.97;86.31
45621;BME280;31345;51.522;10.702;2023-02-20T11:53:17;99221.19;;;10.89;82.94
45621;BME280;31345;51.522;10.702;2023-02-20T11:56:09;99223.81;;;10.61;86.87
45621;BME280;31345;51.522;10.702;2023-02-20T11:58:45;99217.13;;;10.43;87.61
45621;BME280;31345;51.522;10.702;2023-02-20T12:01:28;99209.59;;;10.38;87.32
45621;BME280;31345;51.522;10.702;2023-02-20T12:04:01;99208.75;;;10.37;86.97
45621;BME280;31345;51.522;10.702;2023-02-20T12:06:40;99196.47;;;10.52;85.74
45621;BME280;31345;51.522;10.702;2023-02-20T12:09:10;99202.03;;;10.48;88.58
45621;BME280;31345;51.522;10.702;2023-02-20T12:11:39;99182.75;;;10.63;86.86
45621;BME280;31345;51.522;10.702;2023-02-20T12:14:14;99185.84;;;10.13;90.74
45621;BME280;31345;51.522;10.702;2023-02-20T12:16:55;99172.94;;;10.39;90.42
45621;BME280;31345;51.522;10.702;2023-02-20T12:19:40;99173.91;;;10.51;89.17
45621;BME280;31345;51.522;10.702;2023-02-20T12:22:16;99165.09;;;10.80;88.04
45621;BME280;31345;51.522;10.702;2023-02-20T12:25:00;99165.50;;;10.74;89.11
45621;BME280;31345;51.522;10.702;2023-02-20T12:27:51;99155.66;;;10.64;89.77
45621;BME280;31345;51.522;10.702;2023-02-20T12:30:34;99158.88;;;10.68;89.37
45621;BME280;31345;51.522;10.702;2023-02-20T12:36:10;99140.09;;;10.76;88.57
45621;BME280;31345;51.522;10.702;2023-02-20T12:38:54;99134.69;;;10.92;87.90
45621;BME280;31345;51.522;10.702;2023-02-20T12:41:35;99129.66;;;11.02;88.46
45621;BME280;31345;51.522;10.702;2023-02-20T12:44:28;99121.41;;;10.95;89.92
45621;BME280;31345;51.522;10.702;2023-02-20T12:47:18;99124.44;;;11.02;90.36
45621;BME280;31345;51.522;10.702;2023-02-20T12:50:05;99121.41;;;11.08;89.24
45621;BME280;31345;51.522;10.702;2023-02-20T12:53:00;99118.47;;;11.26;87.91
45621;BME280;31345;51.522;10.702;2023-02-20T12:55:43;99117.44;;;11.28;87.94
45621;BME280;31345;51.522;10.702;2023-02-20T12:58:18;99109.25;;;11.20;88.88
45621;BME280;31345;51.522;10.702;2023-02-20T13:00:52;99113.78;;;11.18;89.93
45621;BME280;31345;51.522;10.702;2023-02-20T13:03:24;99099.09;;;11.28;89.59
45621;BME280;31345;51.522;10.702;2023-02-20T13:06:00;99102.25;;;11.21;88.35
45621;BME280;31345;51.522;10.702;2023-02-20T13:08:31;99102.44;;;11.04;90.09
45621;BME280;31345;51.522;10.702;2023-02-20T13:11:11;99110.00;;;11.09;89.92
45621;BME280;31345;51.522;10.702;2023-02-20T13:13:54;99102.56;;;11.29;89.63
45621;BME280;31345;51.522;10.702;2023-02-20T13:16:31;99103.81;;;11.23;91.25
45621;BME280;31345;51.522;10.702;2023-02-20T13:19:14;99107.59;;;11.32;91.01
45621;BME280;31345;51.522;10.702;2023-02-20T13:21:52;99115.97;;;11.37;91.78
45621;BME280;31345;51.522;10.702;2023-02-20T13:24:27;99112.59;;;11.48;89.40
45621;BME280;31345;51.522;10.702;2023-02-20T13:27:01;99110.94;;;11.34;91.46
45621;BME280;31345;51.522;10.702;2023-02-20T13:29:39;99104.75;;;11.48;90.47
45621;BME280;31345;51.522;10.702;2023-02-20T13:32:24;99118.06;;;11.32;92.78
45621;BME280;31345;51.522;10.702;2023-02-20T13:35:37;99106.84;;;11.30;91.95
45621;BME280;31345;51.522;10.702;2023-02-20T13:38:17;99124.56;;;11.39;92.75
45621;BME280;31345;51.522;10.702;2023-02-20T13:41:05;99127.69;;;11.18;92.03